sensor_id;sensor_type;location;lat;lon;timestamp;temperature;humidity
14144;DHT22;7152;48.348;10.980;2023-05-18T00:01:08;6.10;99.90
14144;DHT22;7152;48.348;10.980;2023-05-18T00:03:35;6.10;99.90
14144;DHT22;7152;48.348;10.980;2023-05-18T00:06:00;6.10;99.90
14144;DHT22;7152;48.348;10.980;2023-05-18T00:08:32;6.10;99.90
14144;DHT22;7152;48.348;10.980;2023-05-18T00:10:57;6.00;99.90
14144;DHT22;7152;48.348;10.980;2023-05-18T00:13:23;6.00;99.90
14144;DHT22;7152;48.348;10.980;2023-05-18T00:15:48;6.00;99.90
14144;DHT22;7152;48.348;10.980;2023-05-18T00:18:14;6.00;99.90
14144;DHT22;7152;48.348;10.980;2023-05-18T00:20:39;6.00;99.90
14144;DHT22;7152;48.348;10.980;2023-05-18T00:23:06;5.90;99.90
14144;DHT22;7152;48.348;10.980;2023-05-18T00:25:41;5.90;99.90
14144;DHT22;7152;48.348;10.980;2023-05-18T00:28:06;5.90;99.90
14144;DHT22;7152;48.348;10.980;2023-05-18T00:30:32;5.90;99.90
14144;DHT22;7152;48.348;10.980;2023-05-18T00:32:58;5.90;99.90
14144;DHT22;7152;48.348;10.980;2023-05-18T00:35:23;5.90;99.90
14144;DHT22;7152;48.348;10.980;2023-05-18T00:37:49;5.80;99.90
14144;DHT22;7152;48.348;10.980;2023-05-18T00:40:15;5.80;99.90
14144;DHT22;7152;48.348;10.980;2023-05-18T00:42:41;5.90;99.90
14144;DHT22;7152;48.348;10.980;2023-05-18T00:45:07;5.90;99.90
14144;DHT22;7152;48.348;10.980;2023-05-18T00:47:32;5.90;99.90
14144;DHT22;7152;48.348;10.980;2023-05-18T00:49:58;5.90;99.90
14144;DHT22;7152;48.348;10.980;2023-05-18T00:52:24;5.90;99.90
14144;DHT22;7152;48.348;10.980;2023-05-18T00:54:51;5.90;99.90
14144;DHT22;7152;48.348;10.980;2023-05-18T00:57:18;6.00;99.90
14144;DHT22;7152;48.348;10.980;2023-05-18T00:59:45;5.90;99.90
14144;DHT22;7152;48.348;10.980;2023-05-18T01:02:11;6.00;99.90
14144;DHT22;7152;48.348;10.980;2023-05-18T01:04:39;6.00;99.90
14144;DHT22;7152;48.348;10.980;2023-05-18T01:07:06;6.00;99.90
14144;DHT22;7152;48.348;10.980;2023-05-18T01:09:32;6.00;99.90
14144;DHT22;7152;48.348;10.980;2023-05-18T01:27:47;6.00;99.90
14144;DHT22;7152;48.348;10.980;2023-05-18T01:30:17;6.00;99.90
14144;DHT22;7152;48.348;10.980;2023-05-18T01:32:45;5.90;99.90
14144;DHT22;7152;48.348;10.980;2023-05-18T01:35:11;5.90;99.90
14144;DHT22;7152;48.348;10.980;2023-05-18T01:37:37;5.90;99.90
14144;DHT22;7152;48.348;10.980;2023-05-18T01:40:04;5.90;99.90
14144;DHT22;7152;48.348;10.980;2023-05-18T01:42:33;5.90;99.90
14144;DHT22;7152;48.348;10.980;2023-05-18T01:45:06;5.90;99.90
14144;DHT22;7152;48.348;10.980;2023-05-18T01:47:34;5.90;99.90
14144;DHT22;7152;48.348;10.980;2023-05-18T01:50:17;5.90;99.90
14144;DHT22;7152;48.348;10.980;2023-05-18T01:52:53;5.90;99.90
14144;DHT22;7152;48.348;10.980;2023-05-18T01:55:23;5.90;99.90
14144;DHT22;7152;48.348;10.980;2023-05-18T01:57:51;5.90;99.90
14144;DHT22;7152;48.348;10.980;2023-05-18T02:00:19;5.90;99.90
14144;DHT22;7152;48.348;10.980;2023-05-18T02:02:45;5.90;99.90
14144;DHT22;7152;48.348;10.980;2023-05-18T02:05:10;5.90;99.90
14144;DHT22;7152;48.348;10.980;2023-05-18T02:07:39;5.90;99.90
14144;DHT22;7152;48.348;10.980;2023-05-18T02:10:08;5.80;99.90
14144;DHT22;7152;48.348;10.980;2023-05-18T02:12:34;5.80;99.90
14144;DHT22;7152;48.348;10.980;2023-05-18T02:15:00;5.80;99.90
14144;DHT22;7152;48.348;10.980;2023-05-18T02:17:33;5.80;99.90
14144;DHT22;7152;48.348;10.980;2023-05-18T02:20:00;5.80;99.90
14144;DHT22;7152;48.348;10.980;2023-05-18T02:22:25;5.80;99.90
14144;DHT22;7152;48.348;10.980;2023-05-18T02:24:51;5.80;99.90
14144;DHT22;7152;48.348;10.980;2023-05-18T02:27:18;5.80;99.90
14144;DHT22;7152;48.348;10.980;2023-05-18T02:29:43;5.70;99.90
14144;DHT22;7152;48.348;10.980;2023-05-18T02:32:09;5.80;99.90
14144;DHT22;7152;48.348;10.980;2023-05-18T02:34:34;5.70;99.90
14144;DHT22;7152;48.348;10.980;2023-05-18T02:37:03;5.70;99.90
14144;DHT22;7152;48.348;10.980;2023-05-18T02:39:29;5.70;99.90
14144;DHT22;7152;48.348;10.980;2023-05-18T02:41:54;5.70;99.90
14144;DHT22;7152;48.348;10.980;2023-05-18T02:44:20;5.60;99.90
14144;DHT22;7152;48.348;10.980;2023-05-18T02:46:46;5.70;99.90
14144;DHT22;7152;48.348;10.980;2023-05-18T02:49:11;5.60;99.90
14144;DHT22;7152;48.348;10.980;2023-05-18T02:51:37;5.60;99.90
14144;DHT22;7152;48.348;10.980;2023-05-18T02:54:03;5.60;99.90
14144;DHT22;7152;48.348;10.980;2023-05-18T02:56:28;5.60;99.90
14144;DHT22;7152;48.348;10.980;2023-05-18T02:58:54;5.60;99.90
14144;DHT22;7152;48.348;10.980;2023-05-18T03:01:23;5.60;99.90
14144;DHT22;7152;48.348;10.980;2023-05-18T03:03:52;5.60;99.90
14144;DHT22;7152;48.348;10.980;2023-05-18T03:06:18;5.50;99.90
14144;DHT22;7152;48.348;10.980;2023-05-18T03:08:49;5.60;99.90
14144;DHT22;7152;48.348;10.980;2023-05-18T03:11:14;5.50;99.90
14144;DHT22;7152;48.348;10.980;2023-05-18T03:13:40;5.50;99.90
14144;DHT22;7152;48.348;10.980;2023-05-18T03:16:07;5.50;99.90
14144;DHT22;7152;48.348;10.980;2023-05-18T03:18:33;5.50;99.90
14144;DHT22;7152;48.348;10.980;2023-05-18T03:20:58;5.50;99.90
14144;DHT22;7152;48.348;10.980;2023-05-18T03:23:26;5.40;99.90
14144;DHT22;7152;48.348;10.980;2023-05-18T03:25:52;5.40;99.90
14144;DHT22;7152;48.348;10.980;2023-05-18T03:28:20;5.50;99.90
14144;DHT22;7152;48.348;10.980;2023-05-18T03:30:45;5.50;99.90
14144;DHT22;7152;48.348;10.980;2023-05-18T03:33:11;5.50;99.90
14144;DHT22;7152;48.348;10.980;2023-05-18T03:35:37;5.40;99.90
14144;DHT22;7152;48.348;10.980;2023-05-18T03:38:05;5.40;99.90
14144;DHT22;7152;48.348;10.980;2023-05-18T03:40:31;5.40;99.90
14144;DHT22;7152;48.348;10.980;2023-05-18T03:42:56;5.40;99.90
14144;DHT22;7152;48.348;10.980;2023-05-18T03:45:22;5.40;99.90
14144;DHT22;7152;48.348;10.980;2023-05-18T03:47:47;5.40;99.90
14144;DHT22;7152;48.348;10.980;2023-05-18T03:50:13;5.40;99.90
14144;DHT22;7152;48.348;10.980;2023-05-18T03:52:39;5.40;99.90
14144;DHT22;7152;48.348;10.980;2023-05-18T03:55:05;5.40;99.90
14144;DHT22;7152;48.348;10.980;2023-05-18T03:57:31;5.40;99.90
14144;DHT22;7152;48.348;10.980;2023-05-18T03:59:57;5.40;99.90
14144;DHT22;7152;48.348;10.980;2023-05-18T04:02:23;5.40;99.90
14144;DHT22;7152;48.348;10.980;2023-05-18T04:04:49;5.40;99.90
14144;DHT22;7152;48.348;10.980;2023-05-18T04:07:18;5.40;99.90
14144;DHT22;7152;48.348;10.980;2023-05-18T04:09:47;5.40;99.90
14144;DHT22;7152;48.348;10.980;2023-05-18T04:12:13;5.40;99.90
14144;DHT22;7152;48.348;10.980;2023-05-18T04:14:39;5.50;99.90
14144;DHT22;7152;48.348;10.980;2023-05-18T04:17:07;5.50;99.90
14144;DHT22;7152;48.348;10.980;2023-05-18T04:19:35;5.50;99.90
14144;DHT22;7152;48.348;10.980;2023-05-18T04:22:02;5.50;99.90
14144;DHT22;7152;48.348;10.980;2023-05-18T04:24:32;5.50;99.90
14144;DHT22;7152;48.348;10.980;2023-05-18T04:27:02;5.50;99.90
14144;DHT22;7152;48.348;10.980;2023-05-18T04:29:28;5.50;99.90
14144;DHT22;7152;48.348;10.980;2023-05-18T04:31:55;5.50;99.90
14144;DHT22;7152;48.348;10.980;2023-05-18T04:34:27;5.50;99.90
14144;DHT22;7152;48.348;10.980;2023-05-18T04:36:52;5.50;99.90
14144;DHT22;7152;48.348;10.980;2023-05-18T04:39:23;5.60;99.90
14144;DHT22;7152;48.348;10.980;2023-05-18T04:41:49;5.60;99.90
14144;DHT22;7152;48.348;10.980;2023-05-18T04:44:31;5.60;99.90
14144;DHT22;7152;48.348;10.980;2023-05-18T04:46:58;5.60;99.90
14144;DHT22;7152;48.348;10.980;2023-05-18T04:49:25;5.70;99.90
14144;DHT22;7152;48.348;10.980;2023-05-18T04:51:53;5.60;99.90
14144;DHT22;7152;48.348;10.980;2023-05-18T04:54:27;5.70;99.90
14144;DHT22;7152;48.348;10.980;2023-05-18T04:56:55;5.70;99.90
14144;DHT22;7152;48.348;10.980;2023-05-18T04:59:21;5.80;99.90
14144;DHT22;7152;48.348;10.980;2023-05-18T05:01:51;5.80;99.90
14144;DHT22;7152;48.348;10.980;2023-05-18T05:04:18;5.80;99.90
14144;DHT22;7152;48.348;10.980;2023-05-18T05:06:43;5.90;99.90
14144;DHT22;7152;48.348;10.980;2023-05-18T05:09:09;5.90;99.90
14144;DHT22;7152;48.348;10.980;2023-05-18T05:11:38;6.00;99.90
14144;DHT22;7152;48.348;10.980;2023-05-18T05:14:03;6.00;99.90
14144;DHT22;7152;48.348;10.980;2023-05-18T05:16:29;6.10;99.90
14144;DHT22;7152;48.348;10.980;2023-05-18T05:18:55;6.10;99.90
14144;DHT22;7152;48.348;10.980;2023-05-18T05:21:21;6.20;99.90
14144;DHT22;7152;48.348;10.980;2023-05-18T05:23:46;6.30;99.90
14144;DHT22;7152;48.348;10.980;2023-05-18T05:26:12;6.30;99.90
14144;DHT22;7152;48.348;10.980;2023-05-18T05:28:38;6.40;99.90
14144;DHT22;7152;48.348;10.980;2023-05-18T05:31:03;6.40;99.90
14144;DHT22;7152;48.348;10.980;2023-05-18T05:33:29;6.50;99.90
14144;DHT22;7152;48.348;10.980;2023-05-18T05:35:55;6.60;99.90
14144;DHT22;7152;48.348;10.980;2023-05-18T05:38:20;6.70;99.90
14144;DHT22;7152;48.348;10.980;2023-05-18T05:40:46;6.80;99.90
14144;DHT22;7152;48.348;10.980;2023-05-18T05:43:11;6.80;99.90
14144;DHT22;7152;48.348;10.980;2023-05-18T05:45:38;6.90;99.90
14144;DHT22;7152;48.348;10.980;2023-05-18T05:48:03;7.00;99.90
14144;DHT22;7152;48.348;10.980;2023-05-18T05:50:31;7.10;99.90
14144;DHT22;7152;48.348;10.980;2023-05-18T05:52:56;7.20;99.90
14144;DHT22;7152;48.348;10.980;2023-05-18T05:55:22;7.20;99.90
14144;DHT22;7152;48.348;10.980;2023-05-18T05:57:48;7.30;99.90
14144;DHT22;7152;48.348;10.980;2023-05-18T06:00:14;7.40;99.90
14144;DHT22;7152;48.348;10.980;2023-05-18T06:02:39;7.50;99.90
14144;DHT22;7152;48.348;10.980;2023-05-18T06:05:06;7.50;99.90
14144;DHT22;7152;48.348;10.980;2023-05-18T06:07:33;7.60;99.90
14144;DHT22;7152;48.348;10.980;2023-05-18T06:09:59;7.70;99.90
14144;DHT22;7152;48.348;10.980;2023-05-18T06:12:24;7.80;99.90
14144;DHT22;7152;48.348;10.980;2023-05-18T06:14:50;7.90;99.90
14144;DHT22;7152;48.348;10.980;2023-05-18T06:17:22;8.00;99.90
14144;DHT22;7152;48.348;10.980;2023-05-18T06:19:48;8.10;99.90
14144;DHT22;7152;48.348;10.980;2023-05-18T06:22:14;8.20;99.90
14144;DHT22;7152;48.348;10.980;2023-05-18T06:24:39;8.40;99.90
14144;DHT22;7152;48.348;10.980;2023-05-18T06:27:05;8.50;99.90
14144;DHT22;7152;48.348;10.980;2023-05-18T06:29:30;8.50;99.90
14144;DHT22;7152;48.348;10.980;2023-05-18T06:31:56;8.70;99.90
14144;DHT22;7152;48.348;10.980;2023-05-18T06:34:22;8.80;99.90
14144;DHT22;7152;48.348;10.980;2023-05-18T06:36:48;8.90;99.90
14144;DHT22;7152;48.348;10.980;2023-05-18T06:39:13;9.00;99.90
14144;DHT22;7152;48.348;10.980;2023-05-18T06:41:39;9.10;99.90
14144;DHT22;7152;48.348;10.980;2023-05-18T06:44:05;9.20;99.90
14144;DHT22;7152;48.348;10.980;2023-05-18T06:46:30;9.30;99.90
14144;DHT22;7152;48.348;10.980;2023-05-18T06:48:56;9.40;99.90
14144;DHT22;7152;48.348;10.980;2023-05-18T06:51:21;9.60;99.90
14144;DHT22;7152;48.348;10.980;2023-05-18T06:53:47;9.70;99.90
14144;DHT22;7152;48.348;10.980;2023-05-18T06:56:14;9.80;99.90
14144;DHT22;7152;48.348;10.980;2023-05-18T06:58:41;9.90;99.90
14144;DHT22;7152;48.348;10.980;2023-05-18T07:01:08;10.00;99.90
14144;DHT22;7152;48.348;10.980;2023-05-18T07:03:33;10.10;99.90
14144;DHT22;7152;48.348;10.980;2023-05-18T07:05:59;10.20;99.90
14144;DHT22;7152;48.348;10.980;2023-05-18T07:08:26;10.20;99.90
14144;DHT22;7152;48.348;10.980;2023-05-18T07:10:51;10.30;99.90
14144;DHT22;7152;48.348;10.980;2023-05-18T07:13:18;10.50;99.90
14144;DHT22;7152;48.348;10.980;2023-05-18T07:15:44;10.70;99.90
14144;DHT22;7152;48.348;10.980;2023-05-18T07:18:09;10.80;99.90
14144;DHT22;7152;48.348;10.980;2023-05-18T07:20:35;10.90;99.90
14144;DHT22;7152;48.348;10.980;2023-05-18T07:23:01;11.00;99.90
14144;DHT22;7152;48.348;10.980;2023-05-18T07:25:26;11.10;99.90
14144;DHT22;7152;48.348;10.980;2023-05-18T07:27:53;11.10;99.90
14144;DHT22;7152;48.348;10.980;2023-05-18T07:30:19;11.30;99.90
14144;DHT22;7152;48.348;10.980;2023-05-18T07:32:45;11.40;99.90
14144;DHT22;7152;48.348;10.980;2023-05-18T07:35:11;11.60;99.90
14144;DHT22;7152;48.348;10.980;2023-05-18T07:37:37;11.80;99.90
14144;DHT22;7152;48.348;10.980;2023-05-18T07:40:03;11.90;99.90
14144;DHT22;7152;48.348;10.980;2023-05-18T07:42:29;12.30;99.90
14144;DHT22;7152;48.348;10.980;2023-05-18T07:44:55;12.50;99.90
14144;DHT22;7152;48.348;10.980;2023-05-18T07:47:21;12.50;99.90
14144;DHT22;7152;48.348;10.980;2023-05-18T07:49:47;12.70;99.90
14144;DHT22;7152;48.348;10.980;2023-05-18T07:52:13;12.80;99.90
14144;DHT22;7152;48.348;10.980;2023-05-18T07:54:39;12.90;99.90
14144;DHT22;7152;48.348;10.980;2023-05-18T07:57:05;12.90;99.90
14144;DHT22;7152;48.348;10.980;2023-05-18T07:59:30;12.90;99.90
14144;DHT22;7152;48.348;10.980;2023-05-18T08:01:56;13.00;99.90
14144;DHT22;7152;48.348;10.980;2023-05-18T08:04:23;13.20;99.90
14144;DHT22;7152;48.348;10.980;2023-05-18T08:06:49;13.30;99.90
14144;DHT22;7152;48.348;10.980;2023-05-18T08:09:14;13.20;99.90
14144;DHT22;7152;48.348;10.980;2023-05-18T08:11:41;13.10;99.90
14144;DHT22;7152;48.348;10.980;2023-05-18T08:14:07;13.40;99.90
14144;DHT22;7152;48.348;10.980;2023-05-18T08:16:33;13.60;99.90
14144;DHT22;7152;48.348;10.980;2023-05-18T08:19:02;13.60;99.90
14144;DHT22;7152;48.348;10.980;2023-05-18T08:21:27;13.70;99.90
14144;DHT22;7152;48.348;10.980;2023-05-18T08:23:54;13.70;99.90
14144;DHT22;7152;48.348;10.980;2023-05-18T08:26:20;13.70;99.90
14144;DHT22;7152;48.348;10.980;2023-05-18T08:28:46;13.90;99.90
14144;DHT22;7152;48.348;10.980;2023-05-18T08:31:13;13.90;99.90
14144;DHT22;7152;48.348;10.980;2023-05-18T08:33:40;14.00;99.90
14144;DHT22;7152;48.348;10.980;2023-05-18T08:36:07;14.10;99.90
14144;DHT22;7152;48.348;10.980;2023-05-18T08:38:33;14.20;99.90
14144;DHT22;7152;48.348;10.980;2023-05-18T08:41:29;14.30;99.90
14144;DHT22;7152;48.348;10.980;2023-05-18T08:44:19;14.40;99.90
14144;DHT22;7152;48.348;10.980;2023-05-18T08:46:49;14.40;99.90
14144;DHT22;7152;48.348;10.980;2023-05-18T08:49:19;14.50;99.90
14144;DHT22;7152;48.348;10.980;2023-05-18T08:51:47;14.60;99.90
14144;DHT22;7152;48.348;10.980;2023-05-18T08:54:22;14.70;99.90
14144;DHT22;7152;48.348;10.980;2023-05-18T08:56:48;14.80;99.90
14144;DHT22;7152;48.348;10.980;2023-05-18T08:59:17;14.80;99.90
14144;DHT22;7152;48.348;10.980;2023-05-18T09:01:44;14.90;99.90
14144;DHT22;7152;48.348;10.980;2023-05-18T09:04:09;15.00;99.90
14144;DHT22;7152;48.348;10.980;2023-05-18T09:06:36;15.10;99.90
14144;DHT22;7152;48.348;10.980;2023-05-18T09:09:02;15.20;99.90
14144;DHT22;7152;48.348;10.980;2023-05-18T09:11:32;15.40;99.90
14144;DHT22;7152;48.348;10.980;2023-05-18T09:13:59;15.30;99.90
14144;DHT22;7152;48.348;10.980;2023-05-18T09:16:25;15.40;99.90
14144;DHT22;7152;48.348;10.980;2023-05-18T09:18:51;15.20;99.90
14144;DHT22;7152;48.348;10.980;2023-05-18T09:21:17;15.30;99.90
14144;DHT22;7152;48.348;10.980;2023-05-18T09:23:43;15.70;99.90
14144;DHT22;7152;48.348;10.980;2023-05-18T09:26:09;16.00;99.90
14144;DHT22;7152;48.348;10.980;2023-05-18T09:28:42;16.40;99.90
14144;DHT22;7152;48.348;10.980;2023-05-18T09:31:10;16.80;99.90
14144;DHT22;7152;48.348;10.980;2023-05-18T09:33:42;17.10;99.90
14144;DHT22;7152;48.348;10.980;2023-05-18T09:36:09;17.20;99.90
14144;DHT22;7152;48.348;10.980;2023-05-18T09:38:37;17.30;99.90
14144;DHT22;7152;48.348;10.980;2023-05-18T09:41:08;17.40;99.90
14144;DHT22;7152;48.348;10.980;2023-05-18T09:43:35;17.60;99.90
14144;DHT22;7152;48.348;10.980;2023-05-18T09:46:06;17.70;99.90
14144;DHT22;7152;48.348;10.980;2023-05-18T09:48:34;17.80;99.90
14144;DHT22;7152;48.348;10.980;2023-05-18T09:51:00;17.90;99.90
14144;DHT22;7152;48.348;10.980;2023-05-18T09:53:26;18.00;99.90
14144;DHT22;7152;48.348;10.980;2023-05-18T09:55:52;18.30;99.90
14144;DHT22;7152;48.348;10.980;2023-05-18T09:58:17;18.20;99.90
14144;DHT22;7152;48.348;10.980;2023-05-18T10:00:47;18.20;99.90
14144;DHT22;7152;48.348;10.980;2023-05-18T10:03:19;18.20;99.90
14144;DHT22;7152;48.348;10.980;2023-05-18T10:05:45;18.30;99.90
14144;DHT22;7152;48.348;10.980;2023-05-18T10:08:12;18.70;99.90
14144;DHT22;7152;48.348;10.980;2023-05-18T10:10:45;18.70;99.90
14144;DHT22;7152;48.348;10.980;2023-05-18T10:13:13;18.50;99.90
14144;DHT22;7152;48.348;10.980;2023-05-18T10:15:49;18.70;99.90
14144;DHT22;7152;48.348;10.980;2023-05-18T10:18:22;18.60;99.90
14144;DHT22;7152;48.348;10.980;2023-05-18T10:20:50;18.20;99.90
14144;DHT22;7152;48.348;10.980;2023-05-18T10:23:17;17.90;99.90
14144;DHT22;7152;48.348;10.980;2023-05-18T10:25:45;17.70;99.90
14144;DHT22;7152;48.348;10.980;2023-05-18T10:28:16;17.50;99.90
14144;DHT22;7152;48.348;10.980;2023-05-18T10:30:44;17.90;99.90
14144;DHT22;7152;48.348;10.980;2023-05-18T10:33:12;17.70;99.90
14144;DHT22;7152;48.348;10.980;2023-05-18T10:35:38;17.40;99.90
14144;DHT22;7152;48.348;10.980;2023-05-18T10:38:04;17.10;99.90
14144;DHT22;7152;48.348;10.980;2023-05-18T10:40:32;17.00;99.90
14144;DHT22;7152;48.348;10.980;2023-05-18T10:43:01;17.50;99.90
14144;DHT22;7152;48.348;10.980;2023-05-18T10:45:28;17.70;99.90
14144;DHT22;7152;48.348;10.980;2023-05-18T10:47:58;17.60;99.90
14144;DHT22;7152;48.348;10.980;2023-05-18T10:50:25;17.40;99.90
14144;DHT22;7152;48.348;10.980;2023-05-18T10:52:51;17.30;99.90
14144;DHT22;7152;48.348;10.980;2023-05-18T10:55:17;17.20;99.90
14144;DHT22;7152;48.348;10.980;2023-05-18T10:57:48;17.20;99.90
14144;DHT22;7152;48.348;10.980;2023-05-18T11:00:16;17.20;99.90
14144;DHT22;7152;48.348;10.980;2023-05-18T11:02:42;17.20;99.90
14144;DHT22;7152;48.348;10.980;2023-05-18T11:05:09;17.10;99.90
14144;DHT22;7152;48.348;10.980;2023-05-18T11:07:35;17.30;99.90
14144;DHT22;7152;48.348;10.980;2023-05-18T11:10:06;17.20;99.90
14144;DHT22;7152;48.348;10.980;2023-05-18T11:12:32;17.00;99.90
14144;DHT22;7152;48.348;10.980;2023-05-18T11:15:02;16.90;99.90
14144;DHT22;7152;48.348;10.980;2023-05-18T11:17:29;16.70;99.90
14144;DHT22;7152;48.348;10.980;2023-05-18T11:22:51;16.60;99.90
14144;DHT22;7152;48.348;10.980;2023-05-18T11:25:36;16.90;99.90
14144;DHT22;7152;48.348;10.980;2023-05-18T11:28:04;17.20;99.90
14144;DHT22;7152;48.348;10.980;2023-05-18T11:30:44;17.40;99.90
14144;DHT22;7152;48.348;10.980;2023-05-18T11:38:51;16.80;99.90
14144;DHT22;7152;48.348;10.980;2023-05-18T11:41:35;16.70;99.90
14144;DHT22;7152;48.348;10.980;2023-05-18T11:47:09;16.90;99.90
14144;DHT22;7152;48.348;10.980;2023-05-18T11:57:14;16.60;99.90
14144;DHT22;7152;48.348;10.980;2023-05-18T11:59:43;16.30;99.90
14144;DHT22;7152;48.348;10.980;2023-05-18T12:02:12;16.00;99.90
14144;DHT22;7152;48.348;10.980;2023-05-18T12:04:44;15.80;99.90
14144;DHT22;7152;48.348;10.980;2023-05-18T12:07:11;15.60;99.90
14144;DHT22;7152;48.348;10.980;2023-05-18T12:09:40;15.50;99.90
14144;DHT22;7152;48.348;10.980;2023-05-18T12:12:07;15.40;99.90
14144;DHT22;7152;48.348;10.980;2023-05-18T12:14:35;15.50;99.90
14144;DHT22;7152;48.348;10.980;2023-05-18T12:17:02;15.50;99.90
14144;DHT22;7152;48.348;10.980;2023-05-18T12:19:28;15.50;99.90
14144;DHT22;7152;48.348;10.980;2023-05-18T12:21:53;15.70;99.90
14144;DHT22;7152;48.348;10.980;2023-05-18T12:24:20;16.40;99.90
14144;DHT22;7152;48.348;10.980;2023-05-18T12:26:46;17.40;99.90
14144;DHT22;7152;48.348;10.980;2023-05-18T12:29:12;18.10;99.90
14144;DHT22;7152;48.348;10.980;2023-05-18T12:31:45;18.80;99.90
14144;DHT22;7152;48.348;10.980;2023-05-18T12:34:11;18.90;99.90
14144;DHT22;7152;48.348;10.980;2023-05-18T12:36:49;18.90;99.90
14144;DHT22;7152;48.348;10.980;2023-05-18T12:39:15;18.90;99.90
14144;DHT22;7152;48.348;10.980;2023-05-18T12:41:41;18.90;99.90
14144;DHT22;7152;48.348;10.980;2023-05-18T12:44:07;18.80;99.90
14144;DHT22;7152;48.348;10.980;2023-05-18T12:46:32;18.70;99.90
14144;DHT22;7152;48.348;10.980;2023-05-18T12:48:59;18.70;99.90
14144;DHT22;7152;48.348;10.980;2023-05-18T12:51:31;18.60;99.90
14144;DHT22;7152;48.348;10.980;2023-05-18T12:53:57;18.50;99.90
14144;DHT22;7152;48.348;10.980;2023-05-18T12:56:23;18.50;99.90
14144;DHT22;7152;48.348;10.980;2023-05-18T12:58:59;18.40;99.90
14144;DHT22;7152;48.348;10.980;2023-05-18T13:01:27;18.30;99.90
14144;DHT22;7152;48.348;10.980;2023-05-18T13:03:57;18.20;99.90
14144;DHT22;7152;48.348;10.980;2023-05-18T13:06:23;17.80;99.90
14144;DHT22;7152;48.348;10.980;2023-05-18T13:08:52;17.70;99.90
14144;DHT22;7152;48.348;10.980;2023-05-18T13:11:23;17.70;99.90
14144;DHT22;7152;48.348;10.980;2023-05-18T13:16:22;18.10;99.90
14144;DHT22;7152;48.348;10.980;2023-05-18T13:18:55;18.20;99.90
14144;DHT22;7152;48.348;10.980;2023-05-18T13:21:21;18.20;99.90
14144;DHT22;7152;48.348;10.980;2023-05-18T13:23:46;18.20;99.90
14144;DHT22;7152;48.348;10.980;2023-05-18T13:26:12;18.60;99.90
14144;DHT22;7152;48.348;10.980;2023-05-18T13:28:38;19.00;99.90
14144;DHT22;7152;48.348;10.980;2023-05-18T13:31:04;19.50;99.90
14144;DHT22;7152;48.348;10.980;2023-05-18T13:33:29;19.60;99.90
14144;DHT22;7152;48.348;10.980;2023-05-18T13:35:55;19.80;99.90
14144;DHT22;7152;48.348;10.980;2023-05-18T13:38:21;19.60;99.90
14144;DHT22;7152;48.348;10.980;2023-05-18T13:40:46;19.60;99.90
14144;DHT22;7152;48.348;10.980;2023-05-18T13:43:12;19.40;99.90
14144;DHT22;7152;48.348;10.980;2023-05-18T13:45:38;19.30;99.90
14144;DHT22;7152;48.348;10.980;2023-05-18T13:48:03;19.00;99.90
14144;DHT22;7152;48.348;10.980;2023-05-18T13:50:31;18.90;99.90
14144;DHT22;7152;48.348;10.980;2023-05-18T13:52:57;18.80;99.90
14144;DHT22;7152;48.348;10.980;2023-05-18T13:55:23;18.80;99.90
14144;DHT22;7152;48.348;10.980;2023-05-18T13:57:49;18.80;99.90
14144;DHT22;7152;48.348;10.980;2023-05-18T14:00:14;19.00;99.90
14144;DHT22;7152;48.348;10.980;2023-05-18T14:02:42;19.30;99.90
14144;DHT22;7152;48.348;10.980;2023-05-18T14:05:09;19.50;99.90
14144;DHT22;7152;48.348;10.980;2023-05-18T14:07:40;19.70;99.90
14144;DHT22;7152;48.348;10.980;2023-05-18T14:10:07;19.60;99.60
14144;DHT22;7152;48.348;10.980;2023-05-18T14:12:33;19.50;99.90
14144;DHT22;7152;48.348;10.980;2023-05-18T14:14:59;19.50;99.90
14144;DHT22;7152;48.348;10.980;2023-05-18T14:17:25;19.50;99.90
14144;DHT22;7152;48.348;10.980;2023-05-18T14:19:57;19.40;99.90
14144;DHT22;7152;48.348;10.980;2023-05-18T14:22:23;19.20;99.30
14144;DHT22;7152;48.348;10.980;2023-05-18T14:24:50;19.40;99.50
14144;DHT22;7152;48.348;10.980;2023-05-18T14:27:16;19.40;99.50
14144;DHT22;7152;48.348;10.980;2023-05-18T14:29:44;19.50;99.60
14144;DHT22;7152;48.348;10.980;2023-05-18T14:32:10;19.50;99.50
14144;DHT22;7152;48.348;10.980;2023-05-18T14:34:36;19.30;99.30
14144;DHT22;7152;48.348;10.980;2023-05-18T14:37:01;19.10;99.70
14144;DHT22;7152;48.348;10.980;2023-05-18T14:39:27;19.00;99.90
14144;DHT22;7152;48.348;10.980;2023-05-18T14:41:53;18.80;99.90
14144;DHT22;7152;48.348;10.980;2023-05-18T14:44:19;18.70;99.90
14144;DHT22;7152;48.348;10.980;2023-05-18T14:46:44;18.50;99.90
14144;DHT22;7152;48.348;10.980;2023-05-18T14:49:10;18.50;99.90
14144;DHT22;7152;48.348;10.980;2023-05-18T14:51:36;18.50;99.90
14144;DHT22;7152;48.348;10.980;2023-05-18T14:54:02;18.50;99.90
14144;DHT22;7152;48.348;10.980;2023-05-18T14:56:27;18.50;99.90
14144;DHT22;7152;48.348;10.980;2023-05-18T14:58:53;18.30;99.90
14144;DHT22;7152;48.348;10.980;2023-05-18T15:01:18;18.20;99.90
14144;DHT22;7152;48.348;10.980;2023-05-18T15:03:44;18.00;99.90
14144;DHT22;7152;48.348;10.980;2023-05-18T15:06:10;17.80;99.90
14144;DHT22;7152;48.348;10.980;2023-05-18T15:08:36;17.60;99.90
14144;DHT22;7152;48.348;10.980;2023-05-18T15:11:01;17.40;99.90
14144;DHT22;7152;48.348;10.980;2023-05-18T15:13:27;17.20;99.90
14144;DHT22;7152;48.348;10.980;2023-05-18T15:15:53;17.00;99.90
14144;DHT22;7152;48.348;10.980;2023-05-18T15:18:18;17.00;99.90
14144;DHT22;7152;48.348;10.980;2023-05-18T15:20:44;16.90;99.90
14144;DHT22;7152;48.348;10.980;2023-05-18T15:23:11;17.00;99.90
14144;DHT22;7152;48.348;10.980;2023-05-18T15:25:37;16.90;99.90
14144;DHT22;7152;48.348;10.980;2023-05-18T15:28:03;16.80;99.90
14144;DHT22;7152;48.348;10.980;2023-05-18T15:30:30;16.70;99.90
14144;DHT22;7152;48.348;10.980;2023-05-18T15:32:56;16.60;99.90
14144;DHT22;7152;48.348;10.980;2023-05-18T15:35:22;16.40;99.90
14144;DHT22;7152;48.348;10.980;2023-05-18T15:37:49;16.40;99.90
14144;DHT22;7152;48.348;10.980;2023-05-18T15:40:18;16.20;99.90
14144;DHT22;7152;48.348;10.980;2023-05-18T15:42:44;16.10;99.90
14144;DHT22;7152;48.348;10.980;2023-05-18T15:45:10;16.00;99.90
14144;DHT22;7152;48.348;10.980;2023-05-18T15:47:36;15.90;99.90
14144;DHT22;7152;48.348;10.980;2023-05-18T15:50:02;15.70;99.90
14144;DHT22;7152;48.348;10.980;2023-05-18T15:52:28;15.70;99.90
14144;DHT22;7152;48.348;10.980;2023-05-18T15:54:53;15.60;99.90
14144;DHT22;7152;48.348;10.980;2023-05-18T15:57:19;15.60;99.90
14144;DHT22;7152;48.348;10.980;2023-05-18T15:59:46;15.40;99.90
14144;DHT22;7152;48.348;10.980;2023-05-18T16:02:12;15.40;99.90
14144;DHT22;7152;48.348;10.980;2023-05-18T16:04:38;15.30;99.90
14144;DHT22;7152;48.348;10.980;2023-05-18T16:07:04;15.30;99.90
14144;DHT22;7152;48.348;10.980;2023-05-18T16:09:30;15.40;99.90
14144;DHT22;7152;48.348;10.980;2023-05-18T16:11:55;15.40;99.90
14144;DHT22;7152;48.348;10.980;2023-05-18T16:14:21;15.30;99.90